createdAt,value
2018-11-20T00:03:28.591Z,1.00
2018-11-20T00:08:51.399Z,1.50
2018-11-20T00:14:14.166Z,2.30
2018-11-20T00:19:36.966Z,1.40
2018-11-20T00:25:00.037Z,1.90
2018-11-20T00:30:17.363Z,0.90
2018-11-20T00:36:37.272Z,1.03
2018-11-20T00:41:59.414Z,1.33
2018-11-20T00:47:21.389Z,1.40
2018-11-20T00:52:43.673Z,0.87
2018-11-20T00:58:18.479Z,2.83
2018-11-20T01:03:47.943Z,1.00
2018-11-20T01:09:10.542Z,1.80
2018-11-20T01:14:27.929Z,2.33
2018-11-20T01:25:06.311Z,2.60
2018-11-20T01:30:28.558Z,1.43
2018-11-20T01:35:50.623Z,2.13
2018-11-20T01:41:12.759Z,1.70
2018-11-20T01:52:09.508Z,1.73
2018-11-20T02:03:17.625Z,1.87
2018-11-20T02:08:39.657Z,1.50
2018-11-20T02:14:21.760Z,1.37
2018-11-20T02:19:43.739Z,1.93
2018-11-20T02:25:06.083Z,1.67
2018-11-20T02:30:28.184Z,1.57
2018-11-20T02:35:50.287Z,2.10
2018-11-20T02:41:12.636Z,2.23
2018-11-20T02:46:34.642Z,2.53
2018-11-20T02:57:25.251Z,1.93
2018-11-20T03:03:06.614Z,2.30
2018-11-20T03:08:40.997Z,2.40
2018-11-20T03:14:03.355Z,2.07
2018-11-20T03:19:25.507Z,2.17
2018-11-20T03:24:47.568Z,2.30
2018-11-20T03:30:48.781Z,1.33
2018-11-20T03:36:10.864Z,2.33
2018-11-20T03:41:33.090Z,1.67
2018-11-20T03:46:55.342Z,1.80
2018-11-20T03:52:17.300Z,2.63
2018-11-20T03:57:38.467Z,2.23
2018-11-20T04:03:13.152Z,1.90
2018-11-20T04:08:35.218Z,1.43
2018-11-20T04:13:57.176Z,2.60
2018-11-20T04:19:19.214Z,3.00
2018-11-20T04:24:41.175Z,2.83
2018-11-20T04:30:03.429Z,3.30
2018-11-20T04:35:27.252Z,2.23
2018-11-20T04:40:49.304Z,2.40
2018-11-20T04:46:11.355Z,3.77
2018-11-20T04:51:33.652Z,2.70
2018-11-20T04:56:55.912Z,2.10
2018-11-20T05:02:10.699Z,2.20
2018-11-20T05:07:32.700Z,2.57
2018-11-20T05:13:06.873Z,2.50
2018-11-20T05:18:28.839Z,2.60
2018-11-20T05:29:38.283Z,2.63
2018-11-20T05:40:56.173Z,2.77
2018-11-20T05:46:18.207Z,2.30
2018-11-20T05:51:40.236Z,3.10
2018-11-20T05:56:58.672Z,3.30
2018-11-20T06:02:20.648Z,4.13
2018-11-20T06:07:42.937Z,2.80
2018-11-20T06:13:05.034Z,2.80
2018-11-20T06:18:40.525Z,2.03
2018-11-20T06:24:02.975Z,3.00
2018-11-20T06:35:25.004Z,2.10
2018-11-20T06:46:17.605Z,2.37
2018-11-20T06:51:39.616Z,3.43
2018-11-20T06:57:01.600Z,3.80
2018-11-20T07:02:37.399Z,3.77
2018-11-20T07:14:17.853Z,3.13
2018-11-20T07:19:52.247Z,3.83
2018-11-20T07:25:14.639Z,2.80
2018-11-20T07:30:45.713Z,3.63
2018-11-20T07:36:22.287Z,3.10
2018-11-20T07:41:44.425Z,2.70
2018-11-20T07:47:06.479Z,2.13
2018-11-20T07:52:28.511Z,3.40
2018-11-20T07:57:50.568Z,2.70
2018-11-20T08:03:12.558Z,3.47
2018-11-20T08:08:46.998Z,4.20
2018-11-20T08:14:09.075Z,3.33
2018-11-20T08:19:35.954Z,3.50
2018-11-20T08:24:52.879Z,3.20
2018-11-20T08:30:13.157Z,3.17
2018-11-20T08:35:25.893Z,3.10
2018-11-20T08:40:54.209Z,4.10
2018-11-20T08:46:16.227Z,2.60
2018-11-20T08:51:37.978Z,2.60
2018-11-20T08:56:59.153Z,3.10
2018-11-20T09:02:20.466Z,3.00
2018-11-20T09:07:41.139Z,3.10
2018-11-20T09:13:18.337Z,3.07
2018-11-20T09:18:49.651Z,3.63
2018-11-20T09:24:11.924Z,4.20
2018-11-20T09:29:34.269Z,2.17
2018-11-20T09:34:55.561Z,2.77
2018-11-20T09:40:52.137Z,2.93
2018-11-20T09:46:24.587Z,3.80
2018-11-20T09:51:46.567Z,3.17
2018-11-20T09:57:11.893Z,4.40
2018-11-20T10:02:32.829Z,4.23
2018-11-20T10:08:01.242Z,2.80
2018-11-20T10:19:10.613Z,4.60
2018-11-20T10:24:45.512Z,4.20
2018-11-20T10:30:07.481Z,3.57
2018-11-20T10:35:29.733Z,3.77
2018-11-20T10:40:51.704Z,3.40
2018-11-20T10:46:14.749Z,3.23
2018-11-20T10:51:43.020Z,4.63
2018-11-20T10:57:05.529Z,3.00
2018-11-20T11:02:26.213Z,3.40
2018-11-20T11:07:37.447Z,4.33
2018-11-20T11:13:06.892Z,3.43
2018-11-20T11:18:27.550Z,3.80
2018-11-20T11:24:04.351Z,2.47
2018-11-20T11:29:44.307Z,3.57
2018-11-20T11:35:12.334Z,2.90
2018-11-20T11:40:33.004Z,4.27
2018-11-20T11:45:58.805Z,3.30
2018-11-20T11:51:32.380Z,3.10
2018-11-20T11:56:53.206Z,3.10
2018-11-20T12:07:40.785Z,3.63
2018-11-20T12:12:53.080Z,2.63
2018-11-20T12:18:15.917Z,2.00
2018-11-20T12:23:43.844Z,3.10
2018-11-20T12:29:21.808Z,2.80
2018-11-20T12:34:38.286Z,3.37
2018-11-20T12:39:59.947Z,2.87
2018-11-20T12:45:40.503Z,2.73
2018-11-20T12:51:01.493Z,2.60
2018-11-20T12:56:38.875Z,2.83
2018-11-20T13:02:03.993Z,3.17
2018-11-20T13:07:25.819Z,2.73
2018-11-20T13:13:02.820Z,1.90
2018-11-20T13:18:23.339Z,1.73
2018-11-20T13:23:49.617Z,3.30
2018-11-20T13:29:19.457Z,2.27
2018-11-20T13:34:47.839Z,3.50
2018-11-20T13:39:57.172Z,2.30
2018-11-20T13:45:18.668Z,3.30
2018-11-20T13:50:55.098Z,2.57
2018-11-20T13:56:22.895Z,3.00
2018-11-20T14:01:44.061Z,2.83
2018-11-20T14:07:18.232Z,2.33
2018-11-20T14:41:20.095Z,2.60
2018-11-20T14:52:17.480Z,3.50
2018-11-20T14:57:51.701Z,2.63
2018-11-20T15:03:29.344Z,2.13
2018-11-20T15:08:54.729Z,2.73
2018-11-20T15:14:17.199Z,2.07
2018-11-20T15:19:41.888Z,2.67
2018-11-20T15:24:57.942Z,2.37
2018-11-20T15:30:18.705Z,2.30
2018-11-20T15:35:41.224Z,3.00
2018-11-20T15:41:02.012Z,2.60
2018-11-20T15:46:33.521Z,3.23
2018-11-20T15:52:06.434Z,3.20
2018-11-20T15:57:27.669Z,2.87
2018-11-20T16:02:55.408Z,3.90
2018-11-20T16:08:16.286Z,4.47
2018-11-20T16:13:47.936Z,4.10
2018-11-20T16:19:20.418Z,3.87
2018-11-20T16:24:45.359Z,3.57
2018-11-20T16:30:05.900Z,4.53
2018-11-20T16:35:37.636Z,4.43
2018-11-20T16:40:50.380Z,4.27
2018-11-20T16:46:29.657Z,4.23
2018-11-20T16:51:54.602Z,4.70
2018-11-20T16:57:15.514Z,4.67
2018-11-20T17:02:35.946Z,4.17
2018-11-20T17:07:56.143Z,4.90
2018-11-20T17:13:21.986Z,4.33
2018-11-20T17:18:46.843Z,4.13
2018-11-20T17:24:08.795Z,4.03
2018-11-20T17:29:30.784Z,4.20
2018-11-20T17:34:52.281Z,3.70
2018-11-20T17:40:12.997Z,5.33
2018-11-20T17:45:24.792Z,3.90
2018-11-20T17:50:46.419Z,4.70
2018-11-20T17:56:10.126Z,4.03
2018-11-20T18:01:31.828Z,5.60
2018-11-20T18:06:52.999Z,4.77
2018-11-20T18:12:24.270Z,8.00
2018-11-20T18:17:55.144Z,5.00
2018-11-20T18:23:12.101Z,4.03
2018-11-20T18:28:22.049Z,3.37
2018-11-20T18:33:38.924Z,5.20
2018-11-20T18:38:50.127Z,3.73
2018-11-20T18:44:12.157Z,3.33
2018-11-20T18:49:42.904Z,2.23
2018-11-20T18:55:14.813Z,4.20
2018-11-20T19:00:51.648Z,4.87
2018-11-20T19:06:19.327Z,4.10
2018-11-20T19:11:44.571Z,3.87
2018-11-20T19:17:00.594Z,4.50
2018-11-20T19:22:27.374Z,3.50
2018-11-20T19:27:51.382Z,5.40
2018-11-20T19:33:17.330Z,4.97
2018-11-20T19:38:39.622Z,3.90
2018-11-20T19:44:01.894Z,5.70
2018-11-20T19:49:23.271Z,3.87
2018-11-20T19:54:52.495Z,4.27
2018-11-20T20:00:18.280Z,4.33
2018-11-20T20:05:38.955Z,5.07
2018-11-20T20:11:03.912Z,4.90
2018-11-20T20:16:21.243Z,5.80
2018-11-20T20:21:46.121Z,6.20
2018-11-20T20:27:11.145Z,4.97
2018-11-20T20:32:38.888Z,6.13
2018-11-20T20:38:00.834Z,5.83
2018-11-20T20:43:25.692Z,4.77
2018-11-20T20:48:47.873Z,6.40
2018-11-20T20:54:19.371Z,7.10
2018-11-20T20:59:50.800Z,4.90
2018-11-20T21:05:19.539Z,3.93
2018-11-20T21:10:40.407Z,3.13
2018-11-20T21:16:02.409Z,5.13
2018-11-20T21:21:15.762Z,5.00
2018-11-20T21:26:36.173Z,3.73
2018-11-20T21:32:16.146Z,4.47
2018-11-20T21:37:38.165Z,4.77
2018-11-20T21:43:00.149Z,6.20
2018-11-20T21:48:34.348Z,6.00
2018-11-20T21:53:57.232Z,4.80
2018-11-20T22:05:08.225Z,4.93
2018-11-20T22:10:31.111Z,5.47
2018-11-20T22:15:53.171Z,5.50
2018-11-20T22:21:33.364Z,3.97
2018-11-20T22:27:01.160Z,5.23
2018-11-20T22:32:36.350Z,5.40
2018-11-20T22:37:58.455Z,7.70
2018-11-20T22:43:20.535Z,6.47
2018-11-20T22:48:43.075Z,5.37
2018-11-20T22:54:11.190Z,5.33
2018-11-20T22:59:45.604Z,7.27
2018-11-20T23:05:06.518Z,8.37
2018-11-20T23:10:09.209Z,6.57
2018-11-20T23:15:13.132Z,6.07
2018-11-20T23:20:15.669Z,5.90
2018-11-20T23:25:23.938Z,5.70
2018-11-20T23:30:27.450Z,6.37
2018-11-20T23:35:45.756Z,6.37
2018-11-20T23:41:01.584Z,6.30
2018-11-20T23:46:04.191Z,7.63
2018-11-20T23:51:18.971Z,7.47
2018-11-20T23:56:34.832Z,5.07
